createdAt,value
2018-01-13T00:02:18.949Z,118.50
2018-01-13T00:04:46.886Z,109.53
2018-01-13T00:07:14.452Z,101.10
2018-01-13T00:09:42.758Z,122.33
2018-01-13T00:12:10.350Z,118.00
2018-01-13T00:14:37.891Z,91.87
2018-01-13T00:17:05.478Z,110.77
2018-01-13T00:19:33.043Z,104.13
2018-01-13T00:22:02.121Z,91.40
2018-01-13T00:24:29.690Z,101.20
2018-01-13T00:26:57.286Z,96.73
2018-01-13T00:29:24.830Z,94.33
2018-01-13T00:31:53.168Z,100.60
2018-01-13T00:34:27.493Z,93.17
2018-01-13T00:36:55.047Z,100.23
2018-01-13T00:39:22.819Z,97.47
2018-01-13T00:41:50.387Z,101.20
2018-01-13T00:44:17.982Z,88.07
2018-01-13T00:46:46.292Z,80.47
2018-01-13T00:49:13.890Z,89.17
2018-01-13T00:51:41.482Z,80.10
2018-01-13T00:54:09.020Z,82.03
2018-01-13T00:56:36.613Z,98.27
2018-01-13T00:59:04.148Z,82.73
2018-01-13T01:01:32.496Z,98.40
2018-01-13T01:04:00.053Z,82.30
2018-01-13T01:06:27.651Z,82.30
2018-01-13T01:08:55.191Z,83.77
2018-01-13T01:11:22.748Z,80.30
2018-01-13T01:13:50.375Z,70.70
2018-01-13T01:16:17.915Z,70.93
2018-01-13T01:18:45.732Z,79.23
2018-01-13T01:21:13.287Z,80.33
2018-01-13T01:23:40.881Z,73.40
2018-01-13T01:26:08.428Z,72.13
2018-01-13T01:28:36.787Z,66.00
2018-01-13T01:31:04.379Z,67.37
2018-01-13T01:33:32.673Z,78.23
2018-01-13T01:36:00.274Z,72.73
2018-01-13T01:38:27.824Z,77.73
2018-01-13T01:40:55.442Z,75.77
2018-01-13T01:43:22.984Z,76.20
2018-01-13T01:45:51.110Z,69.60
2018-01-13T01:48:25.176Z,71.67
2018-01-13T01:50:53.523Z,75.53
2018-01-13T01:53:21.068Z,86.73
2018-01-13T01:55:48.708Z,72.70
2018-01-13T01:58:16.298Z,81.67
2018-01-13T02:00:43.862Z,74.17
2018-01-13T02:03:11.441Z,79.90
2018-01-13T02:05:38.977Z,82.93
2018-01-13T02:08:07.444Z,75.03
2018-01-13T02:10:34.984Z,79.87
2018-01-13T02:13:02.649Z,79.90
2018-01-13T02:15:30.210Z,76.10
2018-01-13T02:17:57.755Z,84.87
2018-01-13T02:20:25.349Z,81.40
2018-01-13T02:22:53.032Z,78.57
2018-01-13T02:25:20.625Z,72.67
2018-01-13T02:27:48.161Z,73.63
2018-01-13T02:30:16.513Z,85.93
2018-01-13T02:32:44.051Z,80.27
2018-01-13T02:35:14.140Z,79.23
2018-01-13T02:37:41.681Z,79.17
2018-01-13T02:40:09.973Z,94.60
2018-01-13T02:42:37.549Z,86.40
2018-01-13T02:45:05.112Z,93.80
2018-01-13T02:47:32.688Z,77.47
2018-01-13T02:50:00.239Z,94.53
2018-01-13T02:52:27.816Z,85.90
2018-01-13T02:54:55.410Z,99.70
2018-01-13T02:57:23.017Z,86.40
2018-01-13T02:59:50.550Z,85.17
2018-01-13T03:02:18.106Z,89.20
2018-01-13T03:04:45.708Z,101.20
2018-01-13T03:07:13.318Z,86.70
2018-01-13T03:09:40.917Z,100.47
2018-01-13T03:12:08.461Z,88.13
2018-01-13T03:14:36.172Z,109.40
2018-01-13T03:17:03.682Z,99.87
2018-01-13T03:19:31.214Z,86.13
2018-01-13T03:21:58.921Z,95.17
2018-01-13T03:24:26.481Z,83.40
2018-01-13T03:26:54.067Z,92.60
2018-01-13T03:29:23.552Z,102.47
2018-01-13T03:31:51.146Z,95.37
2018-01-13T03:34:18.693Z,94.67
2018-01-13T03:36:46.517Z,94.60
2018-01-13T03:39:14.070Z,90.13
2018-01-13T03:41:41.605Z,81.53
2018-01-13T03:44:09.177Z,94.53
2018-01-13T03:46:36.740Z,95.60
2018-01-13T03:49:04.969Z,80.67
2018-01-13T03:51:32.524Z,83.50
2018-01-13T03:54:00.601Z,87.47
2018-01-13T03:56:28.160Z,91.80
2018-01-13T03:58:55.699Z,71.27
2018-01-13T04:01:23.325Z,96.97
2018-01-13T04:03:51.050Z,83.47
2018-01-13T04:06:18.845Z,92.10
2018-01-13T04:08:46.380Z,74.93
2018-01-13T04:11:14.754Z,79.83
2018-01-13T04:13:42.344Z,84.77
2018-01-13T04:16:09.893Z,74.87
2018-01-13T04:18:37.513Z,81.37
2018-01-13T04:21:05.048Z,105.73
2018-01-13T04:23:33.345Z,73.97
2018-01-13T04:26:00.881Z,85.77
2018-01-13T04:28:28.475Z,90.30
2018-01-13T04:30:56.010Z,80.30
2018-01-13T04:33:23.980Z,95.50
2018-01-13T04:35:51.536Z,108.00
2018-01-13T04:38:19.071Z,82.93
2018-01-13T04:40:46.648Z,92.90
2018-01-13T04:43:14.180Z,71.97
2018-01-13T04:45:41.761Z,87.07
2018-01-13T04:48:09.297Z,81.83
2018-01-13T04:50:38.806Z,98.00
2018-01-13T04:53:06.532Z,79.50
2018-01-13T04:55:34.058Z,105.80
2018-01-13T04:58:01.620Z,89.13
2018-01-13T05:00:29.159Z,82.17
2018-01-13T05:02:56.740Z,82.93
2018-01-13T05:05:24.291Z,98.60
2018-01-13T05:07:52.277Z,81.97
2018-01-13T05:10:19.829Z,94.67
2018-01-13T05:12:47.377Z,92.57
2018-01-13T05:15:14.975Z,106.27
2018-01-13T05:17:44.020Z,87.10
2018-01-13T05:20:11.630Z,90.00
2018-01-13T05:22:39.177Z,89.20
2018-01-13T05:25:06.788Z,118.10
2018-01-13T05:27:34.342Z,102.70
2018-01-13T05:30:01.944Z,111.63
2018-01-13T05:32:29.482Z,106.67
2018-01-13T05:34:57.040Z,106.00
2018-01-13T05:37:24.651Z,103.03
2018-01-13T05:39:52.211Z,120.30
2018-01-13T05:42:19.808Z,103.53
2018-01-13T05:44:49.080Z,102.00
2018-01-13T05:47:16.678Z,111.07
2018-01-13T05:49:44.408Z,111.67
2018-01-13T05:52:12.720Z,102.47
2018-01-13T05:54:40.313Z,114.40
2018-01-13T05:57:08.013Z,85.30
2018-01-13T05:59:36.356Z,98.57
2018-01-13T06:02:03.879Z,93.80
2018-01-13T06:04:31.479Z,90.70
2018-01-13T06:06:59.035Z,103.13
2018-01-13T06:09:26.669Z,87.57
2018-01-13T06:11:54.219Z,91.60
2018-01-13T06:14:21.764Z,95.03
2018-01-13T06:16:49.347Z,96.00
2018-01-13T06:19:16.881Z,87.33
2018-01-13T06:21:44.456Z,80.57
2018-01-13T06:24:11.995Z,88.93
2018-01-13T06:26:40.599Z,92.20
2018-01-13T06:29:08.156Z,73.97
2018-01-13T06:31:35.696Z,93.60
2018-01-13T06:34:03.297Z,73.83
2018-01-13T06:36:30.847Z,88.67
2018-01-13T06:38:58.435Z,77.80
2018-01-13T06:41:25.968Z,86.83
2018-01-13T06:43:54.050Z,67.97
2018-01-13T06:46:21.598Z,85.30
2018-01-13T06:48:49.142Z,77.10
2018-01-13T06:51:16.729Z,59.87
2018-01-13T06:53:44.282Z,70.57
2018-01-13T06:56:11.865Z,50.60
2018-01-13T06:58:41.133Z,55.77
2018-01-13T07:01:08.727Z,67.73
2018-01-13T07:03:36.290Z,51.27
2018-01-13T07:06:05.667Z,63.20
2018-01-13T07:08:33.222Z,51.13
2018-01-13T07:11:00.769Z,47.47
2018-01-13T07:13:28.649Z,56.10
2018-01-13T07:15:56.186Z,52.10
2018-01-13T07:18:23.804Z,50.60
2018-01-13T07:20:51.392Z,43.90
2018-01-13T07:23:18.970Z,43.03
2018-01-13T07:25:46.510Z,53.77
2018-01-13T07:28:14.095Z,48.20
2018-01-13T07:30:41.645Z,37.37
2018-01-13T07:33:09.202Z,51.03
2018-01-13T07:35:36.865Z,48.30
2018-01-13T07:38:04.406Z,53.67
2018-01-13T07:40:32.000Z,48.27
2018-01-13T07:42:59.571Z,47.70
2018-01-13T07:45:27.176Z,41.50
2018-01-13T07:47:55.516Z,41.30
2018-01-13T07:50:23.145Z,40.37
2018-01-13T07:52:50.737Z,48.37
2018-01-13T07:55:18.284Z,47.80
2018-01-13T07:57:45.888Z,46.83
2018-01-13T08:00:14.198Z,43.23
2018-01-13T08:02:41.797Z,32.53
2018-01-13T08:05:09.350Z,35.60
2018-01-13T08:07:36.941Z,33.73
2018-01-13T08:10:05.255Z,36.67
2018-01-13T08:12:33.011Z,30.23
2018-01-13T08:15:00.682Z,40.10
2018-01-13T08:17:28.279Z,36.83
2018-01-13T08:19:55.921Z,42.03
2018-01-13T08:22:23.420Z,37.00
2018-01-13T08:24:51.020Z,28.13
2018-01-13T08:27:18.566Z,47.13
2018-01-13T08:29:46.331Z,40.03
2018-01-13T08:32:13.878Z,39.30
2018-01-13T08:34:41.528Z,42.43
2018-01-13T08:37:09.111Z,30.27
2018-01-13T08:39:36.652Z,34.30
2018-01-13T08:42:04.243Z,35.43
2018-01-13T08:44:31.802Z,42.47
2018-01-13T08:46:59.362Z,40.20
2018-01-13T08:49:26.961Z,36.33
2018-01-13T08:51:54.517Z,36.87
2018-01-13T08:54:22.122Z,39.43
2018-01-13T08:56:50.465Z,30.10
2018-01-13T08:59:18.070Z,33.33
2018-01-13T09:01:47.046Z,33.97
2018-01-13T09:04:14.594Z,42.20
2018-01-13T09:06:42.927Z,32.50
2018-01-13T09:09:10.484Z,41.40
2018-01-13T09:11:38.102Z,33.83
2018-01-13T09:14:05.657Z,37.23
2018-01-13T09:16:34.028Z,28.17
2018-01-13T09:19:01.573Z,37.60
2018-01-13T09:21:29.129Z,37.13
2018-01-13T09:23:56.701Z,39.70
2018-01-13T09:26:24.251Z,36.07
2018-01-13T09:28:51.822Z,29.33
2018-01-13T09:31:19.365Z,35.97
2018-01-13T09:33:47.326Z,31.83
2018-01-13T09:36:14.904Z,30.50
2018-01-13T09:38:42.450Z,37.07
2018-01-13T09:41:10.795Z,36.37
2018-01-13T09:43:39.209Z,53.47
2018-01-13T09:46:06.784Z,34.33
2018-01-13T09:48:34.326Z,29.67
2018-01-13T09:51:01.909Z,30.50
2018-01-13T09:53:29.457Z,24.23
2018-01-13T09:55:56.999Z,40.47
2018-01-13T09:58:24.605Z,28.73
2018-01-13T10:00:52.225Z,36.90
2018-01-13T10:03:20.616Z,31.17
2018-01-13T10:05:48.167Z,37.63
2018-01-13T10:08:15.760Z,31.10
2018-01-13T10:10:43.292Z,25.23
2018-01-13T10:13:10.834Z,28.90
2018-01-13T10:15:38.645Z,35.50
2018-01-13T10:18:06.960Z,40.80
2018-01-13T10:20:34.552Z,35.63
2018-01-13T10:23:02.114Z,27.27
2018-01-13T10:25:29.697Z,31.00
2018-01-13T10:27:58.013Z,33.60
2018-01-13T10:30:25.559Z,28.67
2018-01-13T10:32:53.161Z,30.63
2018-01-13T10:35:20.700Z,26.53
2018-01-13T10:37:48.289Z,37.50
2018-01-13T10:40:16.619Z,32.37
2018-01-13T10:42:44.217Z,27.37
2018-01-13T10:45:13.266Z,28.27
2018-01-13T10:47:40.869Z,30.80
2018-01-13T10:50:08.472Z,30.53
2018-01-13T10:52:36.047Z,42.53
2018-01-13T10:55:03.641Z,36.37
2018-01-13T10:57:31.185Z,42.00
2018-01-13T10:59:58.793Z,33.83
2018-01-13T11:02:27.104Z,38.67
2018-01-13T11:04:54.655Z,34.53
2018-01-13T11:07:22.396Z,31.10
2018-01-13T11:09:50.709Z,33.17
2018-01-13T11:12:18.304Z,30.63
2018-01-13T11:14:45.831Z,37.90
2018-01-13T11:17:13.389Z,31.43
2018-01-13T11:19:40.991Z,29.50
2018-01-13T11:22:10.099Z,34.60
2018-01-13T11:24:37.712Z,30.53
2018-01-13T11:27:05.281Z,30.80
2018-01-13T11:29:32.869Z,36.40
2018-01-13T11:32:00.445Z,33.27
2018-01-13T11:34:28.738Z,34.07
2018-01-13T11:36:56.494Z,35.33
2018-01-13T11:39:24.074Z,35.03
2018-01-13T11:41:51.689Z,31.93
2018-01-13T11:44:19.242Z,34.60
2018-01-13T11:46:47.611Z,41.30
2018-01-13T11:49:15.158Z,30.80
2018-01-13T11:51:43.157Z,37.23
2018-01-13T11:54:10.708Z,37.10
2018-01-13T11:56:38.264Z,36.03
2018-01-13T11:59:05.992Z,43.50
2018-01-13T12:01:33.653Z,35.20
2018-01-13T12:04:01.262Z,33.80
2018-01-13T12:06:28.829Z,35.03
2018-01-13T12:08:56.401Z,35.67
2018-01-13T12:11:24.760Z,36.00
2018-01-13T12:13:52.318Z,43.87
2018-01-13T12:16:19.900Z,40.37
2018-01-13T12:18:47.448Z,37.33
2018-01-13T12:21:15.800Z,38.67
2018-01-13T12:23:43.397Z,32.93
2018-01-13T12:26:10.973Z,38.10
2018-01-13T12:28:38.559Z,27.20
2018-01-13T12:31:06.117Z,35.77
2018-01-13T12:33:34.051Z,33.47
2018-01-13T12:36:01.637Z,38.07
2018-01-13T12:38:29.177Z,34.20
2018-01-13T12:40:56.787Z,44.27
2018-01-13T12:43:24.337Z,34.77
2018-01-13T12:45:52.015Z,36.17
2018-01-13T12:48:20.389Z,33.67
2018-01-13T12:50:48.470Z,32.30
2018-01-13T12:53:16.033Z,46.90
2018-01-13T12:55:45.133Z,39.20
2018-01-13T12:58:13.483Z,37.40
2018-01-13T13:00:41.058Z,39.00
2018-01-13T13:03:08.682Z,35.27
2018-01-13T13:05:36.236Z,42.80
2018-01-13T13:08:04.135Z,35.83
2018-01-13T13:10:31.731Z,36.30
2018-01-13T13:12:59.287Z,41.30
2018-01-13T13:15:27.643Z,27.47
2018-01-13T13:17:56.026Z,35.20
2018-01-13T13:20:23.629Z,43.33
2018-01-13T13:22:51.189Z,30.97
2018-01-13T13:25:19.200Z,42.77
2018-01-13T13:27:46.762Z,37.33
2018-01-13T13:30:14.336Z,36.60
2018-01-13T13:32:41.999Z,43.23
2018-01-13T13:35:09.666Z,41.73
2018-01-13T13:37:38.134Z,49.03
2018-01-13T13:40:05.686Z,36.73
2018-01-13T13:42:33.259Z,41.00
2018-01-13T13:45:00.870Z,40.90
2018-01-13T13:47:28.430Z,35.20
2018-01-13T13:49:56.032Z,42.63
2018-01-13T13:52:23.595Z,38.50
2018-01-13T13:54:51.209Z,37.30
2018-01-13T13:57:18.766Z,39.73
2018-01-13T13:59:50.348Z,41.70
2018-01-13T14:02:14.251Z,36.20
2018-01-13T14:04:42.575Z,45.53
2018-01-13T14:07:10.179Z,35.50
2018-01-13T14:09:39.450Z,34.43
2018-01-13T14:12:07.320Z,37.47
2018-01-13T14:14:34.887Z,42.60
2018-01-13T14:17:02.496Z,36.70
2018-01-13T14:19:30.091Z,33.00
2018-01-13T14:21:57.653Z,40.63
2018-01-13T14:24:25.260Z,39.00
2018-01-13T14:26:52.836Z,33.30
2018-01-13T14:29:21.196Z,36.37
2018-01-13T14:31:49.536Z,39.97
2018-01-13T14:34:17.412Z,39.80
2018-01-13T14:36:45.138Z,35.17
2018-01-13T14:39:12.699Z,47.27
2018-01-13T14:41:40.289Z,42.87
2018-01-13T14:44:07.845Z,37.30
2018-01-13T14:46:35.572Z,37.27
2018-01-13T14:49:03.406Z,33.90
2018-01-13T14:51:31.270Z,37.67
2018-01-13T14:53:58.814Z,30.00
2018-01-13T14:56:26.377Z,42.50
2018-01-13T14:58:53.985Z,43.57
2018-01-13T15:01:21.538Z,32.67
2018-01-13T15:03:49.922Z,32.50
2018-01-13T15:06:17.469Z,49.10
2018-01-13T15:08:45.823Z,37.47
2018-01-13T15:11:14.911Z,33.87
2018-01-13T15:13:42.896Z,36.70
2018-01-13T15:16:11.229Z,29.63
2018-01-13T15:18:38.786Z,35.50
2018-01-13T15:21:06.345Z,41.60
2018-01-13T15:23:33.885Z,32.27
2018-01-13T15:26:04.242Z,42.97
2018-01-13T15:28:31.992Z,48.83
2018-01-13T15:30:59.582Z,41.30
2018-01-13T15:33:27.154Z,41.90
2018-01-13T15:35:55.459Z,44.00
2018-01-13T15:38:23.790Z,31.13
2018-01-13T15:40:51.364Z,32.10
2018-01-13T15:43:18.967Z,36.33
2018-01-13T15:45:46.518Z,31.40
2018-01-13T15:48:14.158Z,29.43
2018-01-13T15:50:43.117Z,33.93
2018-01-13T15:53:10.977Z,32.93
2018-01-13T15:55:38.542Z,31.20
2018-01-13T15:58:06.250Z,30.17
2018-01-13T16:00:34.613Z,30.20
2018-01-13T16:03:02.180Z,32.87
2018-01-13T16:05:30.573Z,28.70
2018-01-13T16:07:58.163Z,24.77
2018-01-13T16:10:25.773Z,28.23
2018-01-13T16:12:54.099Z,24.00
2018-01-13T16:15:21.980Z,23.30
2018-01-13T16:17:49.529Z,21.43
2018-01-13T16:20:17.119Z,27.20
2018-01-13T16:22:44.739Z,25.03
2018-01-13T16:25:12.321Z,22.07
2018-01-13T16:27:39.924Z,30.30
2018-01-13T16:30:07.489Z,26.13
2018-01-13T16:32:36.132Z,30.73
2018-01-13T16:35:03.695Z,25.63
2018-01-13T16:37:31.270Z,25.73
2018-01-13T16:39:59.678Z,31.87
2018-01-13T16:42:27.230Z,27.40
2018-01-13T16:44:55.877Z,31.03
2018-01-13T16:47:23.445Z,33.23
2018-01-13T16:49:51.014Z,38.67
2018-01-13T16:52:18.668Z,26.50
2018-01-13T16:54:46.233Z,48.10
2018-01-13T16:57:15.325Z,36.20
2018-01-13T16:59:42.891Z,35.03
2018-01-13T17:02:10.484Z,33.50
2018-01-13T17:04:38.054Z,41.93
2018-01-13T17:07:06.078Z,35.90
2018-01-13T17:09:33.644Z,29.70
2018-01-13T17:12:01.201Z,31.73
2018-01-13T17:14:28.812Z,31.63
2018-01-13T17:16:56.398Z,33.27
2018-01-13T17:19:23.976Z,37.80
2018-01-13T17:21:51.537Z,30.53
2018-01-13T17:24:20.633Z,33.77
2018-01-13T17:26:48.962Z,31.17
2018-01-13T17:29:17.132Z,35.87
2018-01-13T17:31:45.430Z,31.70
2018-01-13T17:34:12.990Z,38.40
2018-01-13T17:36:40.580Z,33.60
2018-01-13T17:39:08.156Z,31.23
2018-01-13T17:41:36.508Z,40.00
2018-01-13T17:44:04.069Z,40.27
2018-01-13T17:46:32.157Z,34.83
2018-01-13T17:49:00.810Z,29.17
2018-01-13T17:51:28.378Z,31.27
2018-01-13T17:53:57.114Z,31.87
2018-01-13T17:56:24.682Z,36.07
2018-01-13T17:58:52.302Z,29.40
2018-01-13T18:01:19.935Z,30.67
2018-01-13T18:03:47.879Z,29.30
2018-01-13T18:06:15.461Z,32.33
2018-01-13T18:08:43.051Z,29.43
2018-01-13T18:11:10.640Z,22.93
2018-01-13T18:13:38.205Z,34.30
2018-01-13T18:16:05.789Z,25.03
2018-01-13T18:18:33.338Z,30.50
2018-01-13T18:21:01.252Z,30.90
2018-01-13T18:23:28.822Z,26.77
2018-01-13T18:25:56.405Z,28.63
2018-01-13T18:28:24.014Z,38.53
2018-01-13T18:30:51.724Z,30.00
2018-01-13T18:33:20.210Z,23.73
2018-01-13T18:35:48.591Z,27.00
2018-01-13T18:38:16.515Z,22.97
2018-01-13T18:40:44.190Z,26.70
2018-01-13T18:43:11.735Z,21.47
2018-01-13T18:45:39.334Z,25.87
2018-01-13T18:48:08.618Z,27.90
2018-01-13T18:50:37.018Z,31.40
2018-01-13T18:53:04.574Z,25.93
2018-01-13T18:55:33.224Z,33.60
2018-01-13T18:58:00.801Z,23.77
2018-01-13T19:00:28.387Z,30.33
2018-01-13T19:02:56.346Z,34.90
2018-01-13T19:05:24.674Z,31.20
2018-01-13T19:07:52.282Z,31.97
2018-01-13T19:10:20.597Z,32.50
2018-01-13T19:12:48.458Z,28.97
2018-01-13T19:15:16.021Z,26.40
2018-01-13T19:17:43.588Z,34.93
2018-01-13T19:20:11.197Z,27.53
2018-01-13T19:22:39.517Z,30.00
2018-01-13T19:25:07.102Z,31.83
2018-01-13T19:27:34.716Z,33.40
2018-01-13T19:30:02.638Z,32.77
2018-01-13T19:32:30.213Z,28.67
2018-01-13T19:34:57.778Z,33.47
2018-01-13T19:37:26.176Z,34.80
2018-01-13T19:39:54.443Z,34.00
2018-01-13T19:42:22.830Z,34.83
2018-01-13T19:44:50.389Z,31.17
2018-01-13T19:47:18.858Z,33.83
2018-01-13T19:49:47.356Z,36.67
2018-01-13T19:52:15.375Z,33.47
2018-01-13T19:54:42.948Z,32.63
2018-01-13T19:57:10.503Z,32.67
2018-01-13T19:59:38.168Z,34.40
2018-01-13T20:02:06.384Z,30.03
2018-01-13T20:04:34.765Z,33.43
2018-01-13T20:07:02.359Z,34.63
2018-01-13T20:09:30.234Z,31.17
2018-01-13T20:11:57.844Z,37.83
2018-01-13T20:14:25.476Z,30.93
2018-01-13T20:16:53.091Z,28.20
2018-01-13T20:19:20.644Z,32.63
2018-01-13T20:21:48.404Z,31.33
2018-01-13T20:24:15.967Z,33.67
2018-01-13T20:26:43.882Z,34.33
2018-01-13T20:29:11.553Z,30.37
2018-01-13T20:31:40.780Z,31.73
2018-01-13T20:34:08.362Z,35.17
2018-01-13T20:36:35.927Z,30.30
2018-01-13T20:39:03.522Z,36.90
2018-01-13T20:41:31.075Z,30.80
2018-01-13T20:43:59.089Z,30.07
2018-01-13T20:46:26.638Z,32.93
2018-01-13T20:48:54.964Z,39.37
2018-01-13T20:51:22.589Z,31.10
2018-01-13T20:53:50.163Z,34.87
2018-01-13T20:56:17.763Z,46.93
2018-01-13T20:58:45.346Z,29.13
2018-01-13T21:01:12.951Z,34.00
2018-01-13T21:03:40.505Z,41.70
2018-01-13T21:06:08.366Z,33.67
2018-01-13T21:08:35.920Z,31.43
2018-01-13T21:11:03.538Z,39.30
2018-01-13T21:13:31.149Z,43.40
2018-01-13T21:15:58.723Z,34.27
2018-01-13T21:18:26.961Z,33.13
2018-01-13T21:20:54.909Z,36.20
2018-01-13T21:23:23.098Z,35.30
2018-01-13T21:25:51.216Z,38.47
2018-01-13T21:28:18.783Z,33.30
2018-01-13T21:30:46.385Z,33.20
2018-01-13T21:33:14.708Z,35.07
2018-01-13T21:35:42.618Z,34.80
2018-01-13T21:38:11.493Z,37.27
2018-01-13T21:40:39.400Z,36.30
2018-01-13T21:43:07.958Z,33.33
2018-01-13T21:45:35.541Z,38.13
2018-01-13T21:48:03.133Z,41.20
2018-01-13T21:50:30.699Z,36.97
2018-01-13T21:52:58.306Z,27.50
2018-01-13T21:55:26.633Z,44.90
2018-01-13T21:57:54.654Z,28.40
2018-01-13T22:00:22.202Z,31.77
2018-01-13T22:02:49.767Z,29.00
2018-01-13T22:05:17.372Z,30.63
2018-01-13T22:07:44.942Z,36.90
2018-01-13T22:10:12.942Z,35.37
2018-01-13T22:12:41.247Z,31.23
2018-01-13T22:15:09.567Z,39.97
2018-01-13T22:17:37.217Z,35.90
2018-01-13T22:20:04.774Z,39.73
2018-01-13T22:22:32.393Z,37.13
2018-01-13T22:25:00.915Z,37.83
2018-01-13T22:27:28.522Z,38.03
2018-01-13T22:29:56.107Z,32.23
2018-01-13T22:32:24.000Z,34.50
2018-01-13T22:34:51.603Z,33.73
2018-01-13T22:37:19.180Z,47.07
2018-01-13T22:39:46.781Z,40.13
2018-01-13T22:42:14.345Z,36.00
2018-01-13T22:44:41.945Z,36.73
2018-01-13T22:47:09.510Z,38.97
2018-01-13T22:49:37.162Z,42.37
2018-01-13T22:52:04.737Z,44.37
2018-01-13T22:54:32.698Z,36.50
2018-01-13T22:57:00.264Z,43.20
2018-01-13T22:59:27.817Z,41.57
2018-01-13T23:01:55.421Z,43.13
2018-01-13T23:04:24.792Z,51.10
2018-01-13T23:06:52.371Z,40.87
2018-01-13T23:09:19.970Z,44.37
2018-01-13T23:11:47.831Z,42.97
2018-01-13T23:14:15.391Z,42.43
2018-01-13T23:16:42.947Z,48.70
2018-01-13T23:19:10.527Z,48.97
2018-01-13T23:21:38.083Z,49.67
2018-01-13T23:24:05.696Z,48.33
2018-01-13T23:26:33.239Z,50.90
2018-01-13T23:29:00.843Z,47.57
2018-01-13T23:31:28.384Z,49.03
2018-01-13T23:33:56.300Z,40.77
2018-01-13T23:36:23.863Z,50.80
2018-01-13T23:38:51.423Z,46.23
2018-01-13T23:41:19.030Z,44.30
2018-01-13T23:43:46.612Z,44.03
2018-01-13T23:46:14.397Z,51.77
2018-01-13T23:48:41.949Z,38.63
2018-01-13T23:51:09.818Z,52.03
2018-01-13T23:53:37.391Z,51.50
2018-01-13T23:56:05.145Z,44.43
2018-01-13T23:58:33.704Z,59.87
